sensor_id;sensor_type;location;lat;lon;timestamp;pressure;altitude;pressure_sealevel;temperature;humidity
64238;BME280;57192;41.976;2.828;2022-08-03T00:01:43;59338.97;;;-144.63;100.00
64238;BME280;57192;41.976;2.828;2022-08-03T00:04:10;59338.97;;;-144.63;100.00
64238;BME280;57192;41.976;2.828;2022-08-03T00:06:35;59338.97;;;-144.63;100.00
64238;BME280;57192;41.976;2.828;2022-08-03T00:09:02;59338.97;;;-144.63;100.00
64238;BME280;57192;41.976;2.828;2022-08-03T00:11:28;59338.97;;;-144.63;100.00
64238;BME280;57192;41.976;2.828;2022-08-03T00:13:53;59338.97;;;-144.63;100.00
64238;BME280;57192;41.976;2.828;2022-08-03T00:16:19;59338.97;;;-144.63;100.00
64238;BME280;57192;41.976;2.828;2022-08-03T00:18:44;59338.97;;;-144.63;100.00
64238;BME280;57192;41.976;2.828;2022-08-03T00:21:10;59338.97;;;-144.63;100.00
64238;BME280;57192;41.976;2.828;2022-08-03T00:23:36;59338.97;;;-144.63;100.00
64238;BME280;57192;41.976;2.828;2022-08-03T00:26:02;59338.97;;;-144.63;100.00
64238;BME280;57192;41.976;2.828;2022-08-03T00:28:28;59338.97;;;-144.63;100.00
64238;BME280;57192;41.976;2.828;2022-08-03T00:30:54;59338.97;;;-144.63;100.00
64238;BME280;57192;41.976;2.828;2022-08-03T00:33:22;59338.97;;;-144.63;100.00
64238;BME280;57192;41.976;2.828;2022-08-03T00:35:47;59338.97;;;-144.63;100.00
64238;BME280;57192;41.976;2.828;2022-08-03T00:38:13;59338.97;;;-144.63;100.00
64238;BME280;57192;41.976;2.828;2022-08-03T00:40:39;59338.97;;;-144.63;100.00
64238;BME280;57192;41.976;2.828;2022-08-03T00:43:06;59338.97;;;-144.63;100.00
64238;BME280;57192;41.976;2.828;2022-08-03T00:45:38;59338.97;;;-144.63;100.00
64238;BME280;57192;41.976;2.828;2022-08-03T00:48:06;59338.97;;;-144.63;100.00
64238;BME280;57192;41.976;2.828;2022-08-03T00:50:38;59338.97;;;-144.63;100.00
64238;BME280;57192;41.976;2.828;2022-08-03T00:53:07;59338.97;;;-144.63;100.00
64238;BME280;57192;41.976;2.828;2022-08-03T00:55:37;59338.97;;;-144.63;100.00
64238;BME280;57192;41.976;2.828;2022-08-03T00:58:03;59338.97;;;-144.63;100.00
64238;BME280;57192;41.976;2.828;2022-08-03T01:00:31;59338.97;;;-144.63;100.00
64238;BME280;57192;41.976;2.828;2022-08-03T01:02:57;59338.97;;;-144.63;100.00
64238;BME280;57192;41.976;2.828;2022-08-03T01:05:22;59338.97;;;-144.63;100.00
64238;BME280;57192;41.976;2.828;2022-08-03T01:08:11;59338.97;;;-144.63;100.00
64238;BME280;57192;41.976;2.828;2022-08-03T01:27:18;59338.97;;;-144.63;100.00
64238;BME280;57192;41.976;2.828;2022-08-03T01:30:01;59338.97;;;-144.63;100.00
64238;BME280;57192;41.976;2.828;2022-08-03T01:32:36;59338.97;;;-144.63;100.00
64238;BME280;57192;41.976;2.828;2022-08-03T01:35:09;59338.97;;;-144.63;100.00
64238;BME280;57192;41.976;2.828;2022-08-03T01:37:46;59338.97;;;-144.63;100.00
64238;BME280;57192;41.976;2.828;2022-08-03T01:40:15;59338.97;;;-144.63;100.00
64238;BME280;57192;41.976;2.828;2022-08-03T01:42:42;59338.97;;;-144.63;100.00
64238;BME280;57192;41.976;2.828;2022-08-03T01:45:12;59338.97;;;-144.63;100.00
64238;BME280;57192;41.976;2.828;2022-08-03T01:47:39;59338.97;;;-144.63;100.00
64238;BME280;57192;41.976;2.828;2022-08-03T01:50:06;59338.97;;;-144.63;100.00
64238;BME280;57192;41.976;2.828;2022-08-03T01:52:33;59338.97;;;-144.63;100.00
64238;BME280;57192;41.976;2.828;2022-08-03T01:55:02;59338.97;;;-144.63;100.00
64238;BME280;57192;41.976;2.828;2022-08-03T01:57:29;59338.97;;;-144.63;100.00
64238;BME280;57192;41.976;2.828;2022-08-03T01:59:56;59338.97;;;-144.63;100.00
64238;BME280;57192;41.976;2.828;2022-08-03T02:02:25;59338.97;;;-144.63;100.00
64238;BME280;57192;41.976;2.828;2022-08-03T02:04:53;59338.97;;;-144.63;100.00
64238;BME280;57192;41.976;2.828;2022-08-03T02:07:21;59338.97;;;-144.63;100.00
64238;BME280;57192;41.976;2.828;2022-08-03T02:09:49;59338.97;;;-144.63;100.00
64238;BME280;57192;41.976;2.828;2022-08-03T02:12:17;59338.97;;;-144.63;100.00
64238;BME280;57192;41.976;2.828;2022-08-03T02:14:44;59338.97;;;-144.63;100.00
64238;BME280;57192;41.976;2.828;2022-08-03T02:17:11;59338.97;;;-144.63;100.00
64238;BME280;57192;41.976;2.828;2022-08-03T02:19:38;59338.97;;;-144.63;100.00
64238;BME280;57192;41.976;2.828;2022-08-03T02:22:05;59338.97;;;-144.63;100.00
64238;BME280;57192;41.976;2.828;2022-08-03T02:24:32;59338.97;;;-144.63;100.00
64238;BME280;57192;41.976;2.828;2022-08-03T02:26:58;59338.97;;;-144.63;100.00
64238;BME280;57192;41.976;2.828;2022-08-03T02:29:28;59338.97;;;-144.63;100.00
64238;BME280;57192;41.976;2.828;2022-08-03T02:31:57;59338.97;;;-144.63;100.00
64238;BME280;57192;41.976;2.828;2022-08-03T02:34:26;59338.97;;;-144.63;100.00
64238;BME280;57192;41.976;2.828;2022-08-03T02:36:55;59338.97;;;-144.63;100.00
64238;BME280;57192;41.976;2.828;2022-08-03T02:39:25;59338.97;;;-144.63;100.00
64238;BME280;57192;41.976;2.828;2022-08-03T02:41:55;59338.97;;;-144.63;100.00
64238;BME280;57192;41.976;2.828;2022-08-03T02:44:27;59338.97;;;-144.63;100.00
64238;BME280;57192;41.976;2.828;2022-08-03T02:46:57;59338.97;;;-144.63;100.00
64238;BME280;57192;41.976;2.828;2022-08-03T02:49:26;59338.97;;;-144.63;100.00
64238;BME280;57192;41.976;2.828;2022-08-03T02:51:53;59338.97;;;-144.63;100.00
64238;BME280;57192;41.976;2.828;2022-08-03T02:54:21;59338.97;;;-144.63;100.00
64238;BME280;57192;41.976;2.828;2022-08-03T02:56:49;59338.97;;;-144.63;100.00
64238;BME280;57192;41.976;2.828;2022-08-03T02:59:17;59338.97;;;-144.63;100.00
64238;BME280;57192;41.976;2.828;2022-08-03T03:01:44;59338.97;;;-144.63;100.00
64238;BME280;57192;41.976;2.828;2022-08-03T03:04:10;59338.97;;;-144.63;100.00
64238;BME280;57192;41.976;2.828;2022-08-03T03:06:37;59338.97;;;-144.63;100.00
64238;BME280;57192;41.976;2.828;2022-08-03T03:09:03;59338.97;;;-144.63;100.00
64238;BME280;57192;41.976;2.828;2022-08-03T03:11:30;59338.97;;;-144.63;100.00
64238;BME280;57192;41.976;2.828;2022-08-03T03:13:56;59338.97;;;-144.63;100.00
64238;BME280;57192;41.976;2.828;2022-08-03T03:16:24;59338.97;;;-144.63;100.00
64238;BME280;57192;41.976;2.828;2022-08-03T03:18:51;59338.97;;;-144.63;100.00
64238;BME280;57192;41.976;2.828;2022-08-03T03:21:18;59338.97;;;-144.63;100.00
64238;BME280;57192;41.976;2.828;2022-08-03T03:23:45;59338.97;;;-144.63;100.00
64238;BME280;57192;41.976;2.828;2022-08-03T03:26:12;59338.97;;;-144.63;100.00
64238;BME280;57192;41.976;2.828;2022-08-03T03:28:39;59338.97;;;-144.63;100.00
64238;BME280;57192;41.976;2.828;2022-08-03T03:31:05;59338.97;;;-144.63;100.00
64238;BME280;57192;41.976;2.828;2022-08-03T03:33:32;59338.97;;;-144.63;100.00
64238;BME280;57192;41.976;2.828;2022-08-03T03:35:58;59338.97;;;-144.63;100.00
64238;BME280;57192;41.976;2.828;2022-08-03T03:38:24;59338.97;;;-144.63;100.00
64238;BME280;57192;41.976;2.828;2022-08-03T03:40:50;59338.97;;;-144.63;100.00
64238;BME280;57192;41.976;2.828;2022-08-03T03:43:15;59338.97;;;-144.63;100.00
64238;BME280;57192;41.976;2.828;2022-08-03T03:45:42;59338.97;;;-144.63;100.00
64238;BME280;57192;41.976;2.828;2022-08-03T03:48:08;59338.97;;;-144.63;100.00
64238;BME280;57192;41.976;2.828;2022-08-03T03:50:35;59338.97;;;-144.63;100.00
64238;BME280;57192;41.976;2.828;2022-08-03T03:53:02;59338.97;;;-144.63;100.00
64238;BME280;57192;41.976;2.828;2022-08-03T03:55:28;59338.97;;;-144.63;100.00
64238;BME280;57192;41.976;2.828;2022-08-03T03:57:54;59338.97;;;-144.63;100.00
64238;BME280;57192;41.976;2.828;2022-08-03T04:00:20;59338.97;;;-144.63;100.00
64238;BME280;57192;41.976;2.828;2022-08-03T04:02:46;59338.97;;;-144.63;100.00
64238;BME280;57192;41.976;2.828;2022-08-03T04:05:12;59338.97;;;-144.63;100.00
64238;BME280;57192;41.976;2.828;2022-08-03T04:10:55;59338.97;;;-144.63;100.00
64238;BME280;57192;41.976;2.828;2022-08-03T04:13:32;59338.97;;;-144.63;100.00
64238;BME280;57192;41.976;2.828;2022-08-03T04:15:58;59338.97;;;-144.63;100.00
64238;BME280;57192;41.976;2.828;2022-08-03T04:18:27;59338.97;;;-144.63;100.00
64238;BME280;57192;41.976;2.828;2022-08-03T04:20:54;59338.97;;;-144.63;100.00
64238;BME280;57192;41.976;2.828;2022-08-03T04:23:23;59338.97;;;-144.63;100.00
64238;BME280;57192;41.976;2.828;2022-08-03T04:25:50;59338.97;;;-144.63;100.00
64238;BME280;57192;41.976;2.828;2022-08-03T04:28:18;59338.97;;;-144.63;100.00
64238;BME280;57192;41.976;2.828;2022-08-03T04:30:44;59338.97;;;-144.63;100.00
64238;BME280;57192;41.976;2.828;2022-08-03T04:33:13;59338.97;;;-144.63;100.00
64238;BME280;57192;41.976;2.828;2022-08-03T04:35:42;59338.97;;;-144.63;100.00
64238;BME280;57192;41.976;2.828;2022-08-03T04:38:10;59338.97;;;-144.63;100.00
64238;BME280;57192;41.976;2.828;2022-08-03T04:40:40;59338.97;;;-144.63;100.00
64238;BME280;57192;41.976;2.828;2022-08-03T04:43:08;59338.97;;;-144.63;100.00
64238;BME280;57192;41.976;2.828;2022-08-03T04:45:35;59338.97;;;-144.63;100.00
64238;BME280;57192;41.976;2.828;2022-08-03T04:48:01;59338.97;;;-144.63;100.00
64238;BME280;57192;41.976;2.828;2022-08-03T04:50:27;59338.97;;;-144.63;100.00
64238;BME280;57192;41.976;2.828;2022-08-03T04:52:53;59338.97;;;-144.63;100.00
64238;BME280;57192;41.976;2.828;2022-08-03T04:55:29;59338.97;;;-144.63;100.00
64238;BME280;57192;41.976;2.828;2022-08-03T04:57:55;59338.97;;;-144.63;100.00
64238;BME280;57192;41.976;2.828;2022-08-03T05:00:21;59338.97;;;-144.63;100.00
64238;BME280;57192;41.976;2.828;2022-08-03T05:02:47;59338.97;;;-144.63;100.00
64238;BME280;57192;41.976;2.828;2022-08-03T05:05:12;59338.97;;;-144.63;100.00
64238;BME280;57192;41.976;2.828;2022-08-03T05:07:40;59338.97;;;-144.63;100.00
64238;BME280;57192;41.976;2.828;2022-08-03T05:10:07;59338.97;;;-144.63;100.00
64238;BME280;57192;41.976;2.828;2022-08-03T05:12:32;59338.97;;;-144.63;100.00
64238;BME280;57192;41.976;2.828;2022-08-03T05:14:58;59338.97;;;-144.63;100.00
64238;BME280;57192;41.976;2.828;2022-08-03T05:17:24;59338.97;;;-144.63;100.00
64238;BME280;57192;41.976;2.828;2022-08-03T05:19:49;59338.97;;;-144.63;100.00
64238;BME280;57192;41.976;2.828;2022-08-03T05:22:15;59338.97;;;-144.63;100.00
64238;BME280;57192;41.976;2.828;2022-08-03T05:24:40;59338.97;;;-144.63;100.00
64238;BME280;57192;41.976;2.828;2022-08-03T05:27:06;59338.97;;;-144.63;100.00
64238;BME280;57192;41.976;2.828;2022-08-03T05:29:31;59338.97;;;-144.63;100.00
64238;BME280;57192;41.976;2.828;2022-08-03T05:31:57;59338.97;;;-144.63;100.00
64238;BME280;57192;41.976;2.828;2022-08-03T05:34:22;59338.97;;;-144.63;100.00
64238;BME280;57192;41.976;2.828;2022-08-03T05:36:48;59338.97;;;-144.63;100.00
64238;BME280;57192;41.976;2.828;2022-08-03T05:39:13;59338.97;;;-144.63;100.00
64238;BME280;57192;41.976;2.828;2022-08-03T05:41:38;59338.97;;;-144.63;100.00
64238;BME280;57192;41.976;2.828;2022-08-03T05:44:04;59338.97;;;-144.63;100.00
64238;BME280;57192;41.976;2.828;2022-08-03T05:46:30;59338.97;;;-144.63;100.00
64238;BME280;57192;41.976;2.828;2022-08-03T05:48:56;59338.97;;;-144.63;100.00
64238;BME280;57192;41.976;2.828;2022-08-03T05:51:21;59338.97;;;-144.63;100.00
64238;BME280;57192;41.976;2.828;2022-08-03T05:53:47;59338.97;;;-144.63;100.00
64238;BME280;57192;41.976;2.828;2022-08-03T05:56:12;59338.97;;;-144.63;100.00
64238;BME280;57192;41.976;2.828;2022-08-03T05:58:38;59338.97;;;-144.63;100.00
64238;BME280;57192;41.976;2.828;2022-08-03T06:01:03;59338.97;;;-144.63;100.00
64238;BME280;57192;41.976;2.828;2022-08-03T06:03:29;59338.97;;;-144.63;100.00
64238;BME280;57192;41.976;2.828;2022-08-03T06:05:54;59338.97;;;-144.63;100.00
64238;BME280;57192;41.976;2.828;2022-08-03T06:08:21;73921.56;;;-144.63;35.56
64238;BME280;57192;41.976;2.828;2022-08-03T06:10:47;100482.72;;;24.56;55.61
64238;BME280;57192;41.976;2.828;2022-08-03T06:13:12;100480.41;;;25.13;54.60
64238;BME280;57192;41.976;2.828;2022-08-03T06:15:38;100483.38;;;25.70;53.18
64238;BME280;57192;41.976;2.828;2022-08-03T06:18:03;100485.59;;;26.34;51.71
64238;BME280;57192;41.976;2.828;2022-08-03T06:20:29;100475.56;;;27.55;48.58
64238;BME280;57192;41.976;2.828;2022-08-03T06:22:54;100491.69;;;29.55;44.39
64238;BME280;57192;41.976;2.828;2022-08-03T06:25:20;100484.47;;;31.47;39.94
64238;BME280;57192;41.976;2.828;2022-08-03T06:27:45;100490.09;;;33.15;36.76
64238;BME280;57192;41.976;2.828;2022-08-03T06:30:11;100488.56;;;34.67;33.37
64238;BME280;57192;41.976;2.828;2022-08-03T06:32:37;100485.53;;;35.92;31.08
64238;BME280;57192;41.976;2.828;2022-08-03T06:35:07;100490.78;;;36.96;29.38
64238;BME280;57192;41.976;2.828;2022-08-03T06:37:46;100494.38;;;37.95;27.71
64238;BME280;57192;41.976;2.828;2022-08-03T06:40:15;100504.97;;;39.06;26.23
64238;BME280;57192;41.976;2.828;2022-08-03T06:42:41;100495.72;;;40.05;24.14
64238;BME280;57192;41.976;2.828;2022-08-03T06:45:08;100493.91;;;41.07;23.28
64238;BME280;57192;41.976;2.828;2022-08-03T06:47:39;100498.53;;;41.86;21.91
64238;BME280;57192;41.976;2.828;2022-08-03T06:50:06;100504.22;;;42.58;21.22
64238;BME280;57192;41.976;2.828;2022-08-03T06:52:32;100493.06;;;43.14;20.27
64238;BME280;57192;41.976;2.828;2022-08-03T06:54:57;100500.44;;;43.70;19.73
64238;BME280;57192;41.976;2.828;2022-08-03T06:57:23;100509.72;;;44.15;18.93
64238;BME280;57192;41.976;2.828;2022-08-03T06:59:49;100501.59;;;44.58;18.45
64238;BME280;57192;41.976;2.828;2022-08-03T07:02:15;100501.75;;;45.30;17.83
64238;BME280;57192;41.976;2.828;2022-08-03T07:04:40;100497.13;;;46.06;17.04
64238;BME280;57192;41.976;2.828;2022-08-03T07:07:06;100498.31;;;46.75;16.47
64238;BME280;57192;41.976;2.828;2022-08-03T07:09:31;100512.59;;;47.25;15.61
64238;BME280;57192;41.976;2.828;2022-08-03T07:11:57;100509.69;;;47.58;15.62
64238;BME280;57192;41.976;2.828;2022-08-03T07:14:23;100509.84;;;48.03;14.93
64238;BME280;57192;41.976;2.828;2022-08-03T07:16:48;100518.47;;;48.79;14.41
64238;BME280;57192;41.976;2.828;2022-08-03T07:19:14;100513.59;;;49.33;13.66
64238;BME280;57192;41.976;2.828;2022-08-03T07:21:39;100509.91;;;49.72;13.27
64238;BME280;57192;41.976;2.828;2022-08-03T07:24:05;100510.31;;;49.97;13.29
64238;BME280;57192;41.976;2.828;2022-08-03T07:26:31;100506.16;;;50.29;12.74
64238;BME280;57192;41.976;2.828;2022-08-03T07:28:56;100509.31;;;50.62;12.60
64238;BME280;57192;41.976;2.828;2022-08-03T07:31:21;100504.09;;;50.90;12.16
64238;BME280;57192;41.976;2.828;2022-08-03T07:33:47;100512.31;;;51.30;11.56
64238;BME280;57192;41.976;2.828;2022-08-03T07:36:12;100509.19;;;51.53;11.05
64238;BME280;57192;41.976;2.828;2022-08-03T07:38:38;100510.22;;;51.78;11.45
64238;BME280;57192;41.976;2.828;2022-08-03T07:41:03;100510.53;;;52.06;11.02
64238;BME280;57192;41.976;2.828;2022-08-03T07:43:29;100499.59;;;52.37;10.33
64238;BME280;57192;41.976;2.828;2022-08-03T07:45:54;100503.56;;;52.91;9.33
64238;BME280;57192;41.976;2.828;2022-08-03T07:48:22;100510.59;;;53.42;8.86
64238;BME280;57192;41.976;2.828;2022-08-03T07:50:47;100507.97;;;53.86;8.52
64238;BME280;57192;41.976;2.828;2022-08-03T07:53:13;100521.28;;;54.22;8.33
64238;BME280;57192;41.976;2.828;2022-08-03T07:55:38;100512.47;;;54.40;8.54
64238;BME280;57192;41.976;2.828;2022-08-03T07:58:09;100512.28;;;54.48;8.00
64238;BME280;57192;41.976;2.828;2022-08-03T08:00:37;100508.25;;;54.78;8.57
64238;BME280;57192;41.976;2.828;2022-08-03T08:03:03;100515.53;;;55.07;8.84
64238;BME280;57192;41.976;2.828;2022-08-03T08:05:29;100516.53;;;55.14;8.44
64238;BME280;57192;41.976;2.828;2022-08-03T08:07:54;100516.28;;;55.35;8.14
64238;BME280;57192;41.976;2.828;2022-08-03T08:10:20;100512.22;;;55.36;8.13
64238;BME280;57192;41.976;2.828;2022-08-03T08:12:46;100512.22;;;55.36;8.13
64238;BME280;57192;41.976;2.828;2022-08-03T08:15:12;100512.22;;;55.36;8.13
64238;BME280;57192;41.976;2.828;2022-08-03T08:20:08;100523.44;;;55.96;8.24
64238;BME280;57192;41.976;2.828;2022-08-03T08:22:34;100526.72;;;56.14;7.99
64238;BME280;57192;41.976;2.828;2022-08-03T08:24:59;100526.53;;;56.07;7.61
64238;BME280;57192;41.976;2.828;2022-08-03T08:27:25;100528.31;;;55.95;7.57
64238;BME280;57192;41.976;2.828;2022-08-03T08:29:50;100527.63;;;56.18;7.29
64238;BME280;57192;41.976;2.828;2022-08-03T08:32:16;100531.06;;;56.27;7.62
64238;BME280;57192;41.976;2.828;2022-08-03T08:34:41;100528.59;;;56.45;7.46
64238;BME280;57192;41.976;2.828;2022-08-03T08:37:07;100532.56;;;56.60;7.37
64238;BME280;57192;41.976;2.828;2022-08-03T08:39:32;100527.81;;;56.48;7.33
64238;BME280;57192;41.976;2.828;2022-08-03T08:41:58;100533.25;;;56.14;7.65
64238;BME280;57192;41.976;2.828;2022-08-03T08:44:23;100523.53;;;55.64;7.73
64238;BME280;57192;41.976;2.828;2022-08-03T08:46:49;100528.41;;;55.16;8.15
64238;BME280;57192;41.976;2.828;2022-08-03T08:49:22;100522.09;;;54.63;8.29
64238;BME280;57192;41.976;2.828;2022-08-03T08:51:53;100512.03;;;53.61;8.50
64238;BME280;57192;41.976;2.828;2022-08-03T08:54:22;100513.56;;;52.22;9.31
64238;BME280;57192;41.976;2.828;2022-08-03T08:56:50;100506.50;;;50.36;11.19
64238;BME280;57192;41.976;2.828;2022-08-03T08:59:17;100505.06;;;48.62;12.78
64238;BME280;57192;41.976;2.828;2022-08-03T09:01:42;100513.19;;;47.08;13.97
64238;BME280;57192;41.976;2.828;2022-08-03T09:04:08;100508.53;;;45.71;14.59
64238;BME280;57192;41.976;2.828;2022-08-03T09:06:34;100511.09;;;44.62;15.71
64238;BME280;57192;41.976;2.828;2022-08-03T09:08:59;100513.38;;;43.55;16.17
64238;BME280;57192;41.976;2.828;2022-08-03T09:11:25;100513.22;;;42.70;17.50
64238;BME280;57192;41.976;2.828;2022-08-03T09:13:50;100519.25;;;42.11;17.68
64238;BME280;57192;41.976;2.828;2022-08-03T09:16:19;100512.59;;;41.59;18.03
64238;BME280;57192;41.976;2.828;2022-08-03T09:18:47;100516.28;;;41.18;18.62
64238;BME280;57192;41.976;2.828;2022-08-03T09:21:24;100512.66;;;40.80;18.96
64238;BME280;57192;41.976;2.828;2022-08-03T09:23:52;100513.84;;;40.57;19.16
64238;BME280;57192;41.976;2.828;2022-08-03T09:26:26;100519.50;;;40.40;19.69
64238;BME280;57192;41.976;2.828;2022-08-03T09:29:09;100514.88;;;40.24;20.63
64238;BME280;57192;41.976;2.828;2022-08-03T09:31:41;100523.53;;;40.00;20.96
64238;BME280;57192;41.976;2.828;2022-08-03T09:34:08;100519.63;;;39.79;21.70
64238;BME280;57192;41.976;2.828;2022-08-03T09:36:38;100517.16;;;39.61;21.51
64238;BME280;57192;41.976;2.828;2022-08-03T09:39:06;100515.09;;;39.51;21.98
64238;BME280;57192;41.976;2.828;2022-08-03T09:41:35;100514.38;;;39.39;23.17
64238;BME280;57192;41.976;2.828;2022-08-03T09:44:00;100513.78;;;39.37;23.51
64238;BME280;57192;41.976;2.828;2022-08-03T09:46:26;100510.50;;;39.23;24.25
64238;BME280;57192;41.976;2.828;2022-08-03T09:49:08;100512.41;;;39.00;25.66
64238;BME280;57192;41.976;2.828;2022-08-03T09:51:34;100510.38;;;38.79;25.88
64238;BME280;57192;41.976;2.828;2022-08-03T09:54:00;100505.38;;;38.64;26.46
64238;BME280;57192;41.976;2.828;2022-08-03T09:56:45;100510.81;;;38.42;27.12
64238;BME280;57192;41.976;2.828;2022-08-03T09:59:12;100504.13;;;38.26;27.25
64238;BME280;57192;41.976;2.828;2022-08-03T10:01:38;100495.28;;;38.13;27.95
64238;BME280;57192;41.976;2.828;2022-08-03T10:04:13;100498.59;;;37.98;28.63
64238;BME280;57192;41.976;2.828;2022-08-03T10:06:39;100501.25;;;37.93;28.90
64238;BME280;57192;41.976;2.828;2022-08-03T10:11:32;100495.28;;;37.72;29.45
64238;BME280;57192;41.976;2.828;2022-08-03T10:14:02;100490.53;;;37.56;29.88
64238;BME280;57192;41.976;2.828;2022-08-03T10:16:33;100483.44;;;37.48;29.98
64238;BME280;57192;41.976;2.828;2022-08-03T10:18:59;100489.44;;;37.45;30.56
64238;BME280;57192;41.976;2.828;2022-08-03T10:21:25;100486.19;;;37.48;30.40
64238;BME280;57192;41.976;2.828;2022-08-03T10:23:55;100481.97;;;37.46;30.21
64238;BME280;57192;41.976;2.828;2022-08-03T10:26:24;100486.94;;;37.44;30.43
64238;BME280;57192;41.976;2.828;2022-08-03T10:28:53;100483.41;;;37.37;30.84
64238;BME280;57192;41.976;2.828;2022-08-03T10:31:21;100483.66;;;37.23;31.45
64238;BME280;57192;41.976;2.828;2022-08-03T10:33:49;100482.13;;;37.04;32.01
64238;BME280;57192;41.976;2.828;2022-08-03T10:36:16;100483.66;;;36.88;31.91
64238;BME280;57192;41.976;2.828;2022-08-03T10:38:43;100475.56;;;36.63;32.40
64238;BME280;57192;41.976;2.828;2022-08-03T10:41:12;100470.84;;;36.52;32.65
64238;BME280;57192;41.976;2.828;2022-08-03T10:44:02;100473.16;;;36.55;33.29
64238;BME280;57192;41.976;2.828;2022-08-03T10:46:27;100468.59;;;36.49;33.66
64238;BME280;57192;41.976;2.828;2022-08-03T10:48:53;100469.63;;;36.48;33.21
64238;BME280;57192;41.976;2.828;2022-08-03T10:51:22;100464.56;;;36.45;33.49
64238;BME280;57192;41.976;2.828;2022-08-03T10:53:48;100458.50;;;36.36;33.72
64238;BME280;57192;41.976;2.828;2022-08-03T10:56:37;100458.41;;;36.31;33.75
64238;BME280;57192;41.976;2.828;2022-08-03T11:02:15;100451.28;;;36.23;34.02
64238;BME280;57192;41.976;2.828;2022-08-03T11:04:41;100448.50;;;36.23;33.62
64238;BME280;57192;41.976;2.828;2022-08-03T11:07:23;100451.28;;;36.23;34.10
64238;BME280;57192;41.976;2.828;2022-08-03T11:09:53;100443.22;;;36.22;33.87
64238;BME280;57192;41.976;2.828;2022-08-03T11:14:54;100442.56;;;36.08;34.57
64238;BME280;57192;41.976;2.828;2022-08-03T11:17:20;100443.66;;;36.07;34.47
64238;BME280;57192;41.976;2.828;2022-08-03T11:19:48;100442.31;;;36.09;34.38
64238;BME280;57192;41.976;2.828;2022-08-03T11:22:14;100420.91;;;36.05;34.73
64238;BME280;57192;41.976;2.828;2022-08-03T11:35:18;100434.53;;;35.88;34.78
64238;BME280;57192;41.976;2.828;2022-08-03T11:46:09;100435.84;;;35.85;32.25
64238;BME280;57192;41.976;2.828;2022-08-03T11:48:49;100437.22;;;35.95;30.44
64238;BME280;57192;41.976;2.828;2022-08-03T11:51:29;100413.63;;;35.92;31.32
64238;BME280;57192;41.976;2.828;2022-08-03T11:54:04;100430.53;;;36.02;33.49
64238;BME280;57192;41.976;2.828;2022-08-03T11:56:46;100429.13;;;36.11;32.60
64238;BME280;57192;41.976;2.828;2022-08-03T11:59:12;100434.06;;;36.21;30.03
64238;BME280;57192;41.976;2.828;2022-08-03T12:01:38;100422.06;;;36.27;29.69
64238;BME280;57192;41.976;2.828;2022-08-03T12:04:05;100431.97;;;36.47;28.55
64238;BME280;57192;41.976;2.828;2022-08-03T12:06:31;100439.19;;;36.48;28.34
64238;BME280;57192;41.976;2.828;2022-08-03T12:09:19;100436.19;;;36.49;28.21
64238;BME280;57192;41.976;2.828;2022-08-03T12:11:48;100444.81;;;36.41;28.19
64238;BME280;57192;41.976;2.828;2022-08-03T12:14:18;100440.59;;;36.39;28.58
64238;BME280;57192;41.976;2.828;2022-08-03T12:16:47;100441.81;;;36.43;28.98
64238;BME280;57192;41.976;2.828;2022-08-03T12:19:13;100440.19;;;36.53;32.07
64238;BME280;57192;41.976;2.828;2022-08-03T12:21:49;100435.38;;;36.49;29.84
64238;BME280;57192;41.976;2.828;2022-08-03T12:24:15;100446.88;;;36.46;32.38
64238;BME280;57192;41.976;2.828;2022-08-03T12:26:46;100449.88;;;36.44;30.18
64238;BME280;57192;41.976;2.828;2022-08-03T12:29:22;100438.13;;;36.49;29.57
64238;BME280;57192;41.976;2.828;2022-08-03T12:31:49;100443.16;;;36.52;29.72
64238;BME280;57192;41.976;2.828;2022-08-03T12:34:15;100443.44;;;36.62;30.63
64238;BME280;57192;41.976;2.828;2022-08-03T12:36:51;100450.63;;;36.63;31.84
64238;BME280;57192;41.976;2.828;2022-08-03T12:39:22;100446.31;;;36.55;32.59
64238;BME280;57192;41.976;2.828;2022-08-03T12:41:52;100440.91;;;36.49;32.46
64238;BME280;57192;41.976;2.828;2022-08-03T12:44:29;100439.66;;;36.45;30.72
64238;BME280;57192;41.976;2.828;2022-08-03T12:46:59;100446.19;;;36.50;30.00
64238;BME280;57192;41.976;2.828;2022-08-03T12:49:25;100439.09;;;36.54;30.83
64238;BME280;57192;41.976;2.828;2022-08-03T12:54:16;100443.69;;;36.60;30.05
64238;BME280;57192;41.976;2.828;2022-08-03T12:57:11;100437.78;;;36.57;30.12
64238;BME280;57192;41.976;2.828;2022-08-03T12:59:38;100444.78;;;36.59;29.72
64238;BME280;57192;41.976;2.828;2022-08-03T13:02:18;100436.22;;;36.61;29.30
64238;BME280;57192;41.976;2.828;2022-08-03T13:04:44;100427.91;;;36.61;28.61
64238;BME280;57192;41.976;2.828;2022-08-03T13:07:11;100433.69;;;36.71;31.69
64238;BME280;57192;41.976;2.828;2022-08-03T13:09:47;100434.53;;;36.72;28.20
64238;BME280;57192;41.976;2.828;2022-08-03T13:12:14;100437.53;;;36.70;28.49
64238;BME280;57192;41.976;2.828;2022-08-03T13:14:41;100444.63;;;36.78;28.20
64238;BME280;57192;41.976;2.828;2022-08-03T13:17:07;100437.31;;;36.83;27.67
64238;BME280;57192;41.976;2.828;2022-08-03T13:19:36;100442.38;;;36.87;28.13
64238;BME280;57192;41.976;2.828;2022-08-03T13:24:37;100444.53;;;36.84;27.40
64238;BME280;57192;41.976;2.828;2022-08-03T13:27:03;100434.41;;;36.90;27.83
64238;BME280;57192;41.976;2.828;2022-08-03T13:29:30;100436.09;;;36.79;27.27
64238;BME280;57192;41.976;2.828;2022-08-03T13:31:56;100449.34;;;36.77;27.24
64238;BME280;57192;41.976;2.828;2022-08-03T13:34:21;100451.00;;;36.78;26.51
64238;BME280;57192;41.976;2.828;2022-08-03T13:36:47;100451.00;;;36.78;25.73
64238;BME280;57192;41.976;2.828;2022-08-03T13:39:12;100442.22;;;36.70;25.95
64238;BME280;57192;41.976;2.828;2022-08-03T13:41:38;100445.25;;;36.68;26.23